METAR Data
IDs: Format: Raw Decoded Include TAF

Data at: 1421 UTC 21 Apr 2021

METAR for:KVTI (Vinton/Veterans Mem, IA, US)
Text:KVTI 211415Z AUTO 31004KT 10SM CLR 03/M05 A3018 RMK AO2 T00331051
Temperature: 3.3°C ( 38°F)
Dewpoint: -5.1°C ( 23°F) [RH = 54%]
Pressure (altimeter):30.18 inches Hg (1022.1 mb)
Winds:from the NW (310 degrees) at 5 MPH (4 knots; 2.1 m/s)
Visibility:10 or more sm (16+ km)
Ceiling:at least 12,000 feet AGL
Clouds:sky clear below 12,000 feet AGL
QC Flag:automated observation with no human augmentation